Time;durP1;ratioP1;P1;durP2;ratioP2;P2;SDS_P1;SDS_P2;PMS_P1;PMS_P2;Temp;Humidity;BMP_temperature;BMP_pressure;BME280_temperature;BME280_humidity;BME280_pressure;Samples;Min_cycle;Max_cycle;Signal;HPM_P1;HPM_P2
2022/05/30 00:00:41;;;;;;;0.80;0.60;;;3.60;1.40;;;4.25;100.00;94776.23;647669;216;31503;-75
2022/05/30 00:03:22;;;;;;;0.40;0.40;;;3.50;1.40;;;4.20;100.00;94774.57;649074;216;31540;-75
2022/05/30 00:06:04;;;;;;;0.40;0.40;;;3.50;1.40;;;4.15;100.00;94772.41;648050;212;32152;-75
2022/05/30 00:08:46;;;;;;;0.45;0.40;;;3.50;1.40;;;4.28;100.00;94774.56;643512;216;32239;-75
2022/05/30 00:11:30;;;;;;;0.80;0.50;;;3.70;1.40;;;4.33;100.00;94777.70;655336;216;42131;-75
2022/05/30 00:14:12;;;;;;;0.80;0.40;;;3.70;1.40;;;4.29;100.00;94775.54;646163;216;31499;-75
2022/05/30 00:16:54;;;;;;;0.43;0.40;;;3.60;1.40;;;4.23;100.00;94777.39;652223;216;32067;-75
2022/05/30 00:19:37;;;;;;;0.50;0.50;;;3.60;1.40;;;4.25;100.00;94775.01;645763;212;31604;-75
2022/05/30 00:22:24;;;;;;;0.50;0.30;;;3.40;1.40;;;4.19;100.00;94773.50;654268;216;31855;-77
2022/05/30 00:25:12;;;;;;;1.90;0.77;;;3.30;1.40;;;4.13;100.00;94775.64;650638;216;32498;-74
2022/05/30 00:27:56;;;;;;;0.43;0.40;;;3.40;1.40;;;4.10;100.00;94771.11;642402;217;31513;-74
2022/05/30 00:30:38;;;;;;;0.60;0.50;;;3.30;1.40;;;4.04;100.00;94763.63;654303;216;31465;-74
2022/05/30 00:35:51;;;;;;;0.40;0.40;;;3.30;1.40;;;4.13;100.00;94752.84;622829;222;31903;-74
2022/05/30 00:38:32;;;;;;;0.40;0.30;;;3.50;1.40;;;4.23;100.00;94755.92;645488;212;31551;-74
2022/05/30 00:41:14;;;;;;;0.60;0.60;;;3.70;1.40;;;4.26;100.00;94748.76;649237;212;31512;-74
2022/05/30 00:43:56;;;;;;;0.40;0.40;;;3.60;1.40;;;4.25;100.00;94745.02;650863;216;32317;-76
2022/05/30 00:46:37;;;;;;;0.70;0.70;;;3.50;1.40;;;4.16;100.00;94754.70;651258;212;31655;-75
2022/05/30 00:49:19;;;;;;;0.40;0.30;;;3.40;1.40;;;4.25;100.00;94749.84;648070;216;31597;-75
2022/05/30 00:52:07;;;;;;;0.40;0.40;;;3.60;1.40;;;4.15;100.00;94751.65;653296;216;31508;-77
2022/05/30 00:55:02;;;;;;;0.50;0.40;;;3.40;1.40;;;4.13;100.00;94746.79;653356;216;31514;-75
2022/05/30 00:57:49;;;;;;;0.40;0.30;;;3.40;1.40;;;4.07;100.00;94740.69;650804;212;31873;-78
2022/05/30 01:00:37;;;;;;;0.70;0.60;;;3.40;1.40;;;4.15;100.00;94741.62;646958;216;31506;-75
2022/05/30 01:09:01;;;;;;;0.40;0.40;;;3.20;1.40;;;3.91;100.00;94733.91;651017;216;31637;-74
2022/05/30 01:11:51;;;;;;;0.50;0.50;;;3.10;1.40;;;3.88;100.00;94738.73;645316;216;31699;-75
2022/05/30 01:16:06;;;;;;;0.70;0.60;;;3.20;1.40;;;3.99;100.00;94736.14;644193;212;31512;-75
2022/05/30 01:18:49;;;;;;;0.40;0.40;;;3.20;1.40;;;3.89;100.00;94733.73;620421;226;31836;-75
2022/05/30 01:21:56;;;;;;;0.40;0.20;;;3.00;1.40;;;3.77;100.00;94731.47;619450;226;31858;-75
2022/05/30 01:24:55;;;;;;;0.60;0.60;;;2.90;1.40;;;3.78;100.00;94734.30;649178;216;31518;-75
2022/05/30 01:30:37;;;;;;;0.40;0.30;;;3.00;1.40;;;3.82;100.00;94719.47;649257;216;32237;-75
2022/05/30 01:35:50;;;;;;;0.40;0.30;;;2.70;1.40;;;3.51;100.00;94719.85;643936;216;31607;-75
2022/05/30 01:38:32;;;;;;;0.40;0.30;;;2.60;1.40;;;3.36;100.00;94727.23;645039;216;31763;-75
2022/05/30 01:41:14;;;;;;;1.20;0.50;;;2.50;1.40;;;3.33;100.00;94721.12;647199;216;32610;-75
2022/05/30 01:43:56;;;;;;;0.90;0.65;;;2.60;1.40;;;3.42;100.00;94725.64;646786;216;31656;-75
2022/05/30 01:46:37;;;;;;;0.40;0.30;;;2.70;1.40;;;3.57;100.00;94722.73;646324;216;31649;-75
2022/05/30 01:49:19;;;;;;;0.40;0.20;;;2.80;1.40;;;3.67;100.00;94718.97;648959;216;32251;-75
2022/05/30 01:52:01;;;;;;;0.60;0.52;;;2.80;1.40;;;3.72;100.00;94713.55;649723;216;31534;-75
2022/05/30 01:54:42;;;;;;;0.50;0.40;;;2.80;1.40;;;3.74;100.00;94708.38;646515;212;31535;-76
2022/05/30 01:57:30;;;;;;;0.60;0.60;;;2.90;1.40;;;3.80;100.00;94699.59;648455;212;31530;-78
2022/05/30 02:00:14;;;;;;;0.50;0.50;;;3.00;1.40;;;4.07;100.00;94697.89;652490;212;31509;-77
2022/05/30 02:02:56;;;;;;;0.40;0.30;;;3.20;1.40;;;4.14;100.00;94692.86;643583;216;31895;-75
2022/05/30 02:05:38;;;;;;;0.50;0.40;;;3.30;1.40;;;4.31;100.00;94695.84;651247;216;31593;-75
2022/05/30 02:08:25;;;;;;;0.40;0.30;;;3.40;1.40;;;4.24;100.00;94693.09;640753;216;31690;-78
2022/05/30 02:11:13;;;;;;;0.40;0.30;;;3.40;1.40;;;4.18;100.00;94689.39;650603;216;31509;-75
2022/05/30 02:14:01;;;;;;;0.50;0.40;;;3.40;1.40;;;4.28;100.00;94693.43;620708;226;31987;-80
2022/05/30 02:19:39;;;;;;;0.40;0.22;;;3.50;1.40;;;4.29;100.00;94698.27;650571;216;31505;-75
2022/05/30 02:22:22;;;;;;;0.40;0.30;;;3.50;1.40;;;4.30;100.00;94703.20;648551;216;31732;-75
2022/05/30 02:25:03;;;;;;;0.40;0.30;;;3.50;1.40;;;4.23;100.00;94703.98;645074;216;31523;-74
2022/05/30 02:27:44;;;;;;;0.50;0.40;;;3.40;1.40;;;4.00;100.00;94703.59;648911;216;31521;-75
2022/05/30 02:30:26;;;;;;;0.60;0.40;;;3.20;1.40;;;3.88;100.00;94711.44;647420;216;31664;-75
2022/05/30 02:38:48;;;;;;;0.40;0.30;;;3.10;1.40;;;3.97;100.00;94704.20;618118;222;31986;-75
2022/05/30 02:41:29;;;;;;;0.90;0.80;;;3.30;1.40;;;4.00;100.00;94704.06;652265;216;31615;-75
2022/05/30 02:44:10;;;;;;;1.00;0.50;;;3.30;1.40;;;3.95;100.00;94703.67;647950;212;31627;-75
2022/05/30 02:46:52;;;;;;;0.90;0.80;;;3.20;1.40;;;3.93;100.00;94706.06;648324;216;31548;-75
2022/05/30 02:49:34;;;;;;;0.88;0.60;;;3.20;1.40;;;3.95;100.00;94700.62;654542;216;31945;-75
2022/05/30 02:52:15;;;;;;;0.70;0.50;;;3.30;1.40;;;4.06;100.00;94704.88;647112;212;31668;-75
2022/05/30 02:54:57;;;;;;;0.40;0.30;;;3.40;1.40;;;4.10;100.00;94699.88;643848;212;31486;-75
2022/05/30 02:57:39;;;;;;;0.40;0.30;;;3.40;1.40;;;4.23;100.00;94698.68;648811;216;31535;-75
2022/05/30 03:00:21;;;;;;;0.70;0.70;;;3.50;1.40;;;4.21;100.00;94699.98;645377;216;31503;-75
2022/05/30 03:03:02;;;;;;;0.40;0.40;;;3.50;1.40;;;4.19;100.00;94701.94;650076;216;31505;-75
2022/05/30 03:05:44;;;;;;;1.00;0.60;;;3.50;1.40;;;4.16;100.00;94702.77;652550;216;31519;-75
2022/05/30 03:08:26;;;;;;;0.50;0.50;;;3.40;1.40;;;4.17;100.00;94704.74;651558;212;31524;-75
2022/05/30 03:11:07;;;;;;;0.40;0.40;;;3.40;1.40;;;4.33;100.00;94698.17;650901;216;31509;-75
2022/05/30 03:13:49;;;;;;;0.80;0.40;;;3.50;1.40;;;4.35;100.00;94695.05;620083;226;31835;-75
2022/05/30 03:16:31;;;;;;;0.52;0.52;;;3.50;1.40;;;4.28;100.00;94694.31;651637;212;31509;-75
2022/05/30 03:19:12;;;;;;;0.77;0.77;;;3.40;1.40;;;4.24;100.00;94692.92;643876;212;31513;-75
2022/05/30 03:21:54;;;;;;;0.40;0.40;;;3.40;1.40;;;4.53;100.00;94688.44;647484;216;31546;-75
2022/05/30 03:24:36;;;;;;;0.50;0.40;;;3.50;1.40;;;4.38;100.00;94683.75;644911;212;31486;-75
2022/05/30 03:27:18;;;;;;;1.00;0.40;;;3.40;1.40;;;4.25;100.00;94685.45;650507;216;31536;-75
2022/05/30 03:32:36;;;;;;;0.50;0.40;;;3.30;1.40;;;4.23;100.00;94690.25;654122;216;31461;-75
2022/05/30 03:35:51;;;;;;;0.50;0.50;;;3.30;1.40;;;4.28;100.00;94689.91;650808;216;32334;-75
2022/05/30 03:38:38;;;;;;;0.43;0.35;;;3.30;1.40;;;4.40;100.00;94688.81;650691;216;31569;-78
2022/05/30 03:41:27;;;;;;;0.90;0.60;;;3.40;1.40;;;4.34;100.00;94695.01;621484;226;31869;-75
2022/05/30 03:44:08;;;;;;;1.60;0.52;;;3.40;1.40;;;4.40;100.00;94699.88;649397;212;31490;-75
2022/05/30 03:46:50;;;;;;;0.70;0.60;;;3.50;1.40;;;4.44;100.00;94701.13;650381;216;31494;-75
2022/05/30 03:49:32;;;;;;;0.50;0.40;;;3.60;1.40;;;4.72;100.00;94696.63;648149;216;31507;-75
2022/05/30 03:53:16;;;;;;;0.77;0.77;;;3.80;1.40;;;5.04;100.00;94698.44;645081;212;31490;-75
2022/05/30 03:55:58;;;;;;;0.77;0.35;;;3.90;1.40;;;5.07;100.00;94699.96;619135;222;32013;-75
2022/05/30 03:58:40;;;;;;;0.50;0.50;;;3.90;1.40;;;4.66;100.00;94709.69;643751;216;31481;-75
2022/05/30 04:01:21;;;;;;;0.60;0.40;;;3.70;1.40;;;4.70;100.00;94713.72;650743;216;42105;-74
2022/05/30 04:04:06;;;;;;;0.40;0.40;;;3.70;1.40;;;4.92;100.00;94711.08;616607;226;31848;-74
2022/05/30 04:06:48;;;;;;;0.40;0.40;;;3.90;1.40;;;4.84;100.00;94713.16;651867;212;31516;-74
2022/05/30 04:09:30;;;;;;;1.10;0.90;;;3.80;1.40;;;4.77;100.00;94714.94;655083;216;31585;-74
2022/05/30 04:12:12;;;;;;;0.40;0.40;;;3.70;1.40;;;4.70;100.00;94713.30;647283;216;31568;-74
2022/05/30 04:14:55;;;;;;;0.40;0.30;;;3.60;1.40;;;4.63;100.00;94714.36;646775;216;42220;-74
2022/05/30 04:17:37;;;;;;;0.40;0.30;;;3.70;1.40;;;4.59;100.00;94721.92;652038;216;42341;-74
2022/05/30 04:20:18;;;;;;;1.10;0.50;;;3.70;1.40;;;4.61;100.00;94719.77;652821;216;31497;-75
2022/05/30 04:23:00;;;;;;;0.50;0.50;;;3.70;1.40;;;4.51;100.00;94723.58;651016;212;31594;-75
2022/05/30 04:25:42;;;;;;;0.70;0.43;;;3.70;1.40;;;4.48;100.00;94731.27;650234;216;31948;-75
2022/05/30 04:28:25;;;;;;;1.20;0.80;;;3.70;1.40;;;4.52;100.00;94725.33;644334;216;31548;-75
2022/05/30 04:31:06;;;;;;;0.70;0.50;;;3.80;1.40;;;4.71;100.00;94725.05;645949;216;42106;-75
2022/05/30 04:35:50;;;;;;;1.75;0.65;;;3.90;1.40;;;5.07;100.00;94734.52;620009;226;32348;-75
2022/05/30 04:38:32;;;;;;;0.80;0.60;;;4.10;1.40;;;5.32;100.00;94731.00;646468;216;31591;-75
2022/05/30 04:41:14;;;;;;;0.50;0.40;;;4.30;1.40;;;5.26;100.00;94727.84;646985;216;31874;-75
2022/05/30 04:43:59;;;;;;;1.60;0.70;;;4.30;1.40;;;5.36;100.00;94727.39;652289;216;31502;-75
2022/05/30 04:46:37;;;;;;;0.50;0.50;;;4.40;1.40;;;5.51;100.00;94728.98;648357;212;31473;-75
2022/05/30 04:49:19;;;;;;;0.50;0.50;;;4.50;1.40;;;5.88;100.00;94720.31;621243;226;31890;-75
2022/05/30 04:52:01;;;;;;;0.40;0.30;;;4.70;1.40;;;6.06;100.00;94722.94;648733;216;42473;-75
2022/05/30 04:54:43;;;;;;;5.70;1.10;;;4.80;1.40;;;6.13;100.00;94725.23;654089;216;42100;-76
2022/05/30 04:57:24;;;;;;;1.40;0.50;;;4.90;1.40;;;6.34;100.00;94725.69;648620;216;31548;-74
2022/05/30 05:00:07;;;;;;;0.50;0.50;;;5.10;1.40;;;6.57;100.00;94725.97;647136;216;31729;-74
2022/05/30 05:02:49;;;;;;;0.40;0.30;;;5.20;1.40;;;6.68;100.00;94726.94;652613;216;31493;-74
2022/05/30 05:05:30;;;;;;;0.98;0.60;;;5.30;1.40;;;6.77;100.00;94726.91;647539;212;31468;-74
2022/05/30 05:08:49;;;;;;;0.50;0.40;;;5.40;1.40;;;6.88;100.00;94730.39;649615;216;31612;-74
2022/05/30 05:11:30;;;;;;;0.60;0.50;;;5.50;1.40;;;6.96;100.00;94736.16;654246;216;31616;-75
2022/05/30 05:14:16;;;;;;;0.62;0.55;;;5.70;1.40;;;7.11;100.00;94733.69;646961;216;31736;-74
2022/05/30 05:16:56;;;;;;;1.60;0.65;;;5.80;1.40;;;7.25;100.00;94735.75;651496;216;31497;-73
2022/05/30 05:19:38;;;;;;;0.40;0.40;;;6.00;1.40;;;7.39;100.00;94735.51;622323;222;31992;-73
2022/05/30 05:22:19;;;;;;;0.70;0.40;;;6.10;1.40;;;7.49;100.00;94737.98;644424;216;31572;-74
2022/05/30 05:25:01;;;;;;;0.73;0.73;;;6.30;1.40;;;7.69;100.00;94736.65;644063;212;31538;-75
2022/05/30 05:27:46;;;;;;;0.57;0.40;;;6.50;1.40;;;7.68;100.00;94738.81;646734;212;31512;-74
2022/05/30 05:30:27;;;;;;;1.87;0.80;;;6.50;1.40;;;7.62;100.00;94737.62;646649;212;31760;-73
2022/05/30 05:35:51;;;;;;;0.62;0.62;;;6.70;1.40;;;7.85;100.00;94738.89;652686;212;31542;-73
2022/05/30 05:38:33;;;;;;;0.60;0.50;;;6.80;1.40;;;7.85;100.00;94739.00;645966;216;31501;-74
2022/05/30 05:41:14;;;;;;;1.10;0.50;;;6.80;1.40;;;7.89;100.00;94739.17;649039;216;31589;-74
2022/05/30 05:43:56;;;;;;;0.87;0.40;;;6.80;1.40;;;7.94;100.00;94739.50;650628;212;31490;-74
2022/05/30 05:46:38;;;;;;;1.00;0.50;;;6.90;1.40;;;7.67;100.00;94741.28;618737;226;32043;-74
2022/05/30 05:49:19;;;;;;;0.90;0.47;;;7.00;1.40;;;7.88;100.00;94731.11;646700;216;31555;-74
2022/05/30 05:52:01;;;;;;;0.80;0.50;;;7.00;1.40;;;7.89;100.00;94733.89;651654;216;31506;-73
2022/05/30 05:54:43;;;;;;;1.60;0.80;;;7.20;1.40;;;7.99;100.00;94733.78;648008;216;31519;-74
2022/05/30 05:57:27;;;;;;;1.52;0.70;;;7.50;1.40;;;8.07;100.00;94730.37;644225;216;42163;-74
2022/05/30 06:00:10;;;;;;;0.80;0.50;;;7.50;1.40;;;8.23;100.00;94727.25;649056;212;31508;-74
2022/05/30 06:02:51;;;;;;;0.60;0.40;;;7.70;1.40;;;8.46;100.00;94727.97;630501;220;32316;-76
2022/05/30 06:05:33;;;;;;;1.50;1.20;;;7.70;1.40;;;8.48;100.00;94727.39;648429;216;32312;-75
2022/05/30 06:08:18;;;;;;;0.63;0.63;;;8.00;1.40;;;8.65;100.00;94729.63;644510;212;31515;-74
2022/05/30 06:11:05;;;;;;;0.53;0.50;;;8.00;1.40;;;8.79;100.00;94735.77;619003;226;31858;-74
2022/05/30 06:13:47;;;;;;;1.20;0.90;;;8.10;1.40;;;9.05;100.00;94733.05;647526;216;42095;-74
2022/05/30 06:16:32;;;;;;;0.70;0.70;;;8.30;1.40;;;9.23;100.00;94739.59;645314;212;31530;-74
2022/05/30 06:19:13;;;;;;;0.80;0.70;;;8.50;1.40;;;9.29;100.00;94739.42;645496;216;31636;-74
2022/05/30 06:21:55;;;;;;;0.80;0.60;;;8.60;1.40;;;9.45;100.00;94742.40;652938;216;31493;-74
2022/05/30 06:24:37;;;;;;;1.10;1.00;;;8.70;1.40;;;9.57;100.00;94736.62;644781;212;32042;-74
2022/05/30 06:27:20;;;;;;;0.80;0.80;;;8.60;1.40;;;9.34;100.00;94735.47;649241;212;32107;-73
2022/05/30 06:30:00;;;;;;;1.63;1.17;;;8.60;1.40;;;9.57;100.00;94728.17;643576;216;32089;-75
2022/05/30 06:32:44;;;;;;;1.10;1.00;;;8.80;1.40;;;9.93;100.00;94729.78;645894;216;31549;-81
2022/05/30 06:35:51;;;;;;;1.00;0.80;;;9.10;1.40;;;10.12;100.00;94726.73;644514;216;31663;-74
2022/05/30 06:38:32;;;;;;;1.30;0.77;;;9.30;1.40;;;10.05;100.00;94725.00;623452;225;31939;-74
2022/05/30 06:41:19;;;;;;;0.80;0.80;;;9.00;1.40;;;10.09;100.00;94737.19;623719;222;31889;-74
2022/05/30 06:44:04;;;;;;;1.10;0.87;;;9.00;1.40;;;10.22;100.00;94736.31;623085;226;31874;-74
2022/05/30 06:49:19;;;;;;;1.30;0.80;;;9.20;1.40;;;10.48;100.00;94735.83;645757;216;42186;-74
2022/05/30 06:52:00;;;;;;;0.70;0.70;;;9.40;1.40;;;10.68;100.00;94730.84;619786;226;31854;-74
2022/05/30 06:54:42;;;;;;;1.13;1.07;;;9.50;1.40;;;10.68;100.00;94731.03;643826;216;42125;-73
2022/05/30 07:00:11;;;;;;;1.07;0.90;;;9.50;1.40;;;10.77;100.00;94732.72;646397;212;42135;-74
2022/05/30 07:02:53;;;;;;;1.20;1.10;;;9.70;1.40;;;10.87;100.00;94735.50;646885;216;42682;-74
2022/05/30 07:05:35;;;;;;;1.70;0.90;;;9.80;1.40;;;10.86;100.00;94739.06;646865;216;42228;-75
2022/05/30 07:08:19;;;;;;;1.00;0.90;;;9.90;1.40;;;10.86;100.00;94747.89;650213;216;31513;-74
2022/05/30 07:11:01;;;;;;;1.30;0.95;;;10.20;1.40;;;11.20;100.00;94745.03;624025;225;32035;-74
2022/05/30 07:13:46;;;;;;;2.00;1.30;;;10.60;1.40;;;11.51;100.00;94749.86;649286;216;31583;-74
2022/05/30 07:16:28;;;;;;;0.82;0.82;;;11.00;1.40;;;11.85;100.00;94751.83;647517;216;31666;-74
2022/05/30 07:19:09;;;;;;;0.90;0.77;;;11.10;1.40;;;12.15;100.00;94756.31;648866;216;31652;-75
2022/05/30 07:21:51;;;;;;;0.98;0.88;;;11.30;1.40;;;11.90;100.00;94768.31;618157;226;32436;-74
2022/05/30 07:24:33;;;;;;;0.98;0.88;;;11.50;1.40;;;12.07;100.00;94765.77;624344;226;31778;-74
2022/05/30 07:27:15;;;;;;;0.62;0.62;;;11.80;1.40;;;12.52;100.00;94774.55;649909;216;33247;-75
2022/05/30 07:29:57;;;;;;;1.30;0.55;;;12.50;1.40;;;12.80;100.00;94773.54;647859;216;36623;-74
2022/05/30 07:32:41;;;;;;;0.80;0.50;;;12.60;1.40;;;12.81;100.00;94776.20;649226;216;31526;-75
2022/05/30 07:35:51;;;;;;;1.20;0.90;;;12.50;1.40;;;12.83;100.00;94770.02;650564;216;31502;-74
2022/05/30 07:38:33;;;;;;;0.70;0.50;;;12.30;1.40;;;13.05;100.00;94769.55;650290;212;42172;-75
2022/05/30 07:41:14;;;;;;;1.10;0.80;;;12.50;1.40;;;13.50;100.00;94768.75;644909;212;32136;-74
2022/05/30 07:43:56;;;;;;;0.50;0.50;;;12.30;1.40;;;13.67;100.00;94772.85;644841;212;32109;-74
2022/05/30 07:46:39;;;;;;;0.40;0.40;;;12.60;1.40;;;13.77;100.00;94769.05;648329;216;31825;-74
2022/05/30 07:49:22;;;;;;;0.60;0.50;;;13.00;1.40;;;13.97;100.00;94773.97;652704;216;31665;-74
2022/05/30 07:52:04;;;;;;;0.50;0.40;;;13.10;1.40;;;13.75;100.00;94775.05;634375;221;31679;-75
2022/05/30 07:54:49;;;;;;;1.60;0.50;;;12.80;1.40;;;14.02;100.00;94775.64;652710;216;31577;-74
2022/05/30 08:00:20;;;;;;;0.50;0.40;;;13.20;1.40;;;14.64;100.00;94781.09;644086;216;32080;-75
2022/05/30 08:03:02;;;;;;;0.50;0.40;;;13.50;1.40;;;15.03;100.00;94777.19;648427;216;31488;-74
2022/05/30 08:05:45;;;;;;;0.90;0.70;;;13.70;1.40;;;15.34;100.00;94774.27;652017;216;31468;-74
2022/05/30 08:08:28;;;;;;;0.80;0.68;;;13.70;1.40;;;15.04;100.00;94772.28;645452;216;31472;-74
2022/05/30 08:11:11;;;;;;;0.68;0.68;;;13.40;1.40;;;14.97;100.00;94774.02;643375;215;32131;-74
2022/05/30 08:13:52;;;;;;;0.70;0.50;;;14.10;1.40;;;15.85;100.00;94772.59;645644;216;31532;-75
2022/05/30 08:16:37;;;;;;;0.70;0.60;;;14.30;1.40;;;15.18;100.00;94776.66;649966;212;31637;-74
2022/05/30 08:19:15;;;;;;;0.60;0.40;;;14.00;1.40;;;15.84;100.00;94779.70;616993;226;31903;-74
2022/05/30 08:22:43;;;;;;;0.68;0.45;;;14.50;1.40;;;15.53;95.85;94780.31;647643;216;31511;-75
2022/05/30 08:25:24;;;;;;;0.52;0.50;;;14.30;1.40;;;16.30;100.00;94784.78;647881;216;31473;-75
2022/05/30 08:28:09;;;;;;;0.98;0.50;;;15.00;1.40;;;16.51;98.14;94788.80;645798;216;42108;-74
2022/05/30 08:30:51;;;;;;;0.50;0.45;;;14.80;1.40;;;16.34;92.94;94795.56;644460;216;31483;-74
2022/05/30 08:35:58;;;;;;;0.70;0.60;;;14.00;1.40;;;14.71;98.89;94799.95;646787;216;45683;-74
2022/05/30 08:38:40;;;;;;;0.77;0.60;;;13.90;1.40;;;14.61;100.00;94800.48;649244;212;31687;-75
2022/05/30 08:44:10;;;;;;;1.52;0.60;;;14.30;1.40;;;16.50;90.87;94796.02;647589;216;31558;-74
2022/05/30 08:46:57;;;;;;;0.60;0.60;;;14.80;1.40;;;17.02;95.33;94798.17;619459;222;31795;-75
2022/05/30 08:49:36;;;;;;;0.62;0.60;;;15.70;1.40;;;16.82;89.73;94799.73;644811;212;31537;-74
2022/05/30 08:52:41;;;;;;;0.85;0.47;;;15.80;1.40;;;17.37;93.99;94802.97;645774;216;31472;-74
2022/05/30 08:57:36;;;;;;;0.60;0.50;;;16.60;1.40;;;17.45;92.96;94805.47;646710;216;31508;-75
2022/05/30 09:00:37;;;;;;;0.70;0.52;;;16.40;1.40;;;17.78;81.12;94806.22;646959;216;31486;-75
2022/05/30 09:03:22;;;;;;;1.30;0.60;;;16.40;1.40;;;17.89;84.65;94805.61;647096;216;31511;-74
2022/05/30 09:06:11;;;;;;;3.73;0.90;;;16.00;1.40;;;17.36;86.60;94812.30;645971;212;31576;-74
2022/05/30 09:08:53;;;;;;;0.98;0.70;;;15.90;1.40;;;16.41;81.73;94810.24;642583;216;32269;-74
2022/05/30 09:11:38;;;;;;;0.50;0.50;;;14.90;1.40;;;16.41;86.14;94814.59;645899;213;31519;-75
2022/05/30 09:14:30;;;;;;;0.80;0.50;;;15.10;1.40;;;17.05;84.54;94812.63;620643;226;32625;-75
2022/05/30 09:17:12;;;;;;;0.93;0.60;;;15.40;1.40;;;16.89;81.88;94816.09;646548;212;31487;-74
2022/05/30 09:19:53;;;;;;;0.65;0.60;;;14.60;1.40;;;17.32;81.99;94813.06;618291;222;32569;-75
2022/05/30 09:22:35;;;;;;;0.55;0.55;;;15.20;1.40;;;18.62;84.36;94804.12;645705;216;31624;-74
2022/05/30 09:28:04;;;;;;;0.68;0.60;;;18.60;1.40;;;18.77;69.79;94803.50;647462;216;32063;-75
2022/05/30 09:31:23;;;;;;;1.50;0.90;;;16.50;1.40;;;19.48;72.92;94802.03;645871;216;33052;-75
2022/05/30 09:35:50;;;;;;;0.90;0.70;;;22.00;1.40;;;23.31;59.24;94791.02;646914;212;31523;-75
2022/05/30 09:38:32;;;;;;;1.00;0.90;;;23.00;1.40;;;23.23;56.40;94791.89;645170;212;31543;-75
2022/05/30 09:41:17;;;;;;;1.10;0.80;;;20.30;1.40;;;21.17;54.58;94798.17;619787;222;31868;-75
2022/05/30 09:44:02;;;;;;;0.70;0.60;;;18.30;1.40;;;19.60;61.99;94806.02;647140;216;32045;-75
2022/05/30 09:46:43;;;;;;;1.80;0.70;;;17.00;1.40;;;21.28;62.50;94801.99;648049;216;31863;-75
2022/05/30 09:49:43;;;;;;;0.70;0.50;;;20.10;1.40;;;23.55;63.99;94792.80;647136;216;31521;-75
2022/05/30 09:52:37;;;;;;;2.00;1.10;;;23.00;1.40;;;25.23;51.59;94788.09;645608;213;31508;-75
2022/05/30 09:55:38;;;;;;;1.10;0.80;;;22.90;1.40;;;24.94;49.17;94784.75;648457;216;42122;-76
2022/05/30 09:58:22;;;;;;;0.77;0.73;;;22.60;1.40;;;26.09;48.90;94787.16;646533;216;31576;-75
2022/05/30 10:01:04;;;;;;;1.10;0.70;;;23.50;1.40;;;25.77;48.56;94788.84;647313;216;32507;-75
2022/05/30 10:03:46;;;;;;;0.60;0.60;;;21.90;1.40;;;24.97;50.26;94786.47;647379;216;31493;-76
2022/05/30 10:06:27;;;;;;;0.80;0.80;;;18.80;1.40;;;21.88;54.04;94799.70;647265;216;32142;-75
2022/05/30 10:09:10;;;;;;;1.10;1.00;;;17.10;1.40;;;18.39;59.59;94804.89;640344;216;31912;-75
2022/05/30 10:11:55;;;;;;;1.10;0.80;;;15.80;1.40;;;18.94;64.05;94804.78;646098;216;42160;-75
2022/05/30 10:14:40;;;;;;;0.60;0.52;;;16.10;1.40;;;19.12;63.52;94801.59;648393;212;31513;-76
2022/05/30 10:20:03;;;;;;;1.00;0.90;;;21.00;1.40;;;23.86;58.72;94784.00;618799;226;31854;-75
2022/05/30 10:28:49;;;;;;;1.60;1.00;;;22.90;1.40;;;25.19;45.63;94783.73;648204;212;31504;-76
2022/05/30 10:31:49;;;;;;;1.30;1.05;;;19.40;1.40;;;21.99;51.62;94794.73;648087;216;42282;-76
2022/05/30 10:36:14;;;;;;;0.90;0.70;;;16.90;1.40;;;20.79;56.79;94804.22;648422;216;31695;-76
2022/05/30 10:38:57;;;;;;;0.93;0.90;;;16.50;99.90;;;18.91;60.77;94807.91;648454;216;31488;-76
2022/05/30 10:41:43;;;;;;;0.98;0.88;;;16.00;99.90;;;19.35;62.60;94806.36;619370;225;32363;-75
2022/05/30 10:44:26;;;;;;;1.90;0.70;;;15.90;1.40;;;18.48;60.35;94804.88;645479;216;32571;-75
2022/05/30 10:47:16;;;;;;;2.30;1.10;;;15.80;99.90;;;19.25;59.14;94797.14;646393;216;42137;-75
2022/05/30 10:50:03;;;;;;;0.70;0.70;;;16.30;1.40;;;18.63;61.12;94801.87;647470;216;31598;-74
2022/05/30 10:52:46;;;;;;;1.00;1.00;;;16.10;1.40;;;19.07;60.50;94795.68;650345;212;32063;-75
2022/05/30 10:55:31;;;;;;;3.25;0.90;;;15.90;1.40;;;18.64;59.57;94798.61;648792;216;31569;-76
2022/05/30 10:58:19;;;;;;;0.80;0.77;;;15.80;1.40;;;18.25;60.75;94797.36;647345;216;31757;-75
2022/05/30 11:01:03;;;;;;;0.80;0.80;;;15.70;1.40;;;18.08;61.92;94798.50;646507;212;31542;-76
2022/05/30 11:03:48;;;;;;;1.85;0.90;;;15.60;1.40;;;18.15;66.64;94808.69;644948;212;31578;-75
2022/05/30 11:06:30;;;;;;;0.60;0.60;;;15.70;1.40;;;17.97;65.65;94810.66;645433;216;31491;-75
2022/05/30 11:09:36;;;;;;;0.90;0.90;;;15.90;1.40;;;19.67;66.30;94806.23;642961;216;31703;-75
2022/05/30 11:12:20;;;;;;;1.10;1.00;;;19.80;1.40;;;23.62;50.66;94796.33;643702;212;31560;-75
2022/05/30 11:15:09;;;;;;;1.62;1.10;;;22.10;1.40;;;26.36;50.46;94791.05;645144;212;31659;-75
2022/05/30 11:17:53;;;;;;;1.20;1.10;;;23.00;1.40;;;27.44;42.96;94785.52;650032;212;31807;-76
2022/05/30 11:20:35;;;;;;;2.97;1.30;;;23.20;1.40;;;29.08;41.45;94785.84;647385;216;34662;-75
2022/05/30 11:23:19;;;;;;;1.45;1.35;;;23.80;99.90;;;28.94;40.00;94783.58;648166;216;31568;-76
2022/05/30 11:26:04;;;;;;;1.20;1.08;;;23.00;99.90;;;26.55;39.23;94792.01;648062;216;31533;-75
2022/05/30 11:29:09;;;;;;;1.40;0.80;;;22.20;99.90;;;30.50;37.65;94783.33;647151;216;31605;-76
2022/05/30 11:31:53;;;;;;;1.00;0.90;;;23.70;1.40;;;30.03;39.02;94790.08;645432;216;33087;-75
2022/05/30 11:36:04;;;;;;;0.80;0.80;;;23.50;1.40;;;27.89;41.74;94797.20;619389;226;32060;-75
2022/05/30 11:38:46;;;;;;;1.60;1.10;;;23.40;1.40;;;31.68;35.28;94792.88;646412;216;31605;-76
2022/05/30 11:44:34;;;;;;;0.90;0.80;;;21.50;1.40;;;26.47;38.59;94804.58;645980;216;31597;-76
2022/05/30 11:47:26;;;;;;;0.70;0.70;;;20.50;1.40;;;27.39;42.37;94802.79;645622;216;31673;-76
2022/05/30 11:50:23;;;;;;;1.20;1.10;;;20.40;1.40;;;25.85;43.68;94807.72;646325;216;31617;-74
2022/05/30 11:53:33;;;;;;;0.93;0.93;;;19.00;1.40;;;24.67;42.29;94816.58;646451;216;31494;-76
2022/05/30 11:56:31;;;;;;;1.10;1.00;;;18.40;1.40;;;23.58;41.31;94817.58;647438;216;31519;-76
2022/05/30 11:59:17;;;;;;;1.12;1.00;;;18.20;1.40;;;22.45;42.94;94830.26;646457;216;31532;-75
2022/05/30 12:01:59;;;;;;;1.15;1.05;;;17.90;1.40;;;22.03;45.24;94832.45;646206;212;32452;-75
2022/05/30 12:05:15;;;;;;;2.80;1.27;;;18.20;1.40;;;21.50;44.25;94833.17;646959;216;31488;-75
2022/05/30 12:08:01;;;;;;;1.17;1.08;;;18.20;1.40;;;23.22;41.47;94834.20;646994;212;31553;-75
2022/05/30 12:11:10;;;;;;;1.23;1.12;;;18.70;1.40;;;23.97;41.47;94827.66;647108;216;42186;-75
2022/05/30 12:14:03;;;;;;;0.93;0.90;;;20.40;1.40;;;26.02;39.17;94816.89;646672;216;31624;-73
2022/05/30 12:16:48;;;;;;;2.60;1.00;;;21.10;1.40;;;26.31;36.20;94818.50;646416;216;31713;-76
2022/05/30 12:25:51;;;;;;;1.00;0.90;;;23.00;1.40;;;29.70;32.86;94805.02;645618;216;31514;-75
2022/05/30 12:28:52;;;;;;;1.50;0.93;;;22.40;1.40;;;29.27;33.55;94808.44;646368;216;42507;-75
2022/05/30 12:31:34;;;;;;;1.70;1.00;;;22.60;1.40;;;30.36;32.33;94809.16;645427;216;31494;-74
2022/05/30 12:35:51;;;;;;;1.23;1.00;;;22.20;1.40;;;29.63;32.49;94813.52;646088;216;31522;-76
2022/05/30 12:38:52;;;;;;;1.50;1.40;;;22.40;1.40;;;28.82;34.80;94821.02;646960;216;42464;-74
2022/05/30 12:41:38;;;;;;;2.05;1.30;;;22.50;1.40;;;28.55;35.54;94818.93;646615;212;31518;-76
2022/05/30 12:44:26;;;;;;;1.10;1.00;;;22.50;1.40;;;31.06;33.97;94818.22;646107;212;32922;-73
2022/05/30 12:47:08;;;;;;;1.20;1.10;;;23.50;1.40;;;32.66;32.26;94809.59;645323;216;31717;-74
2022/05/30 12:49:50;;;;;;;1.42;1.17;;;24.60;1.40;;;31.56;30.91;94821.55;646639;216;31535;-74
2022/05/30 12:52:35;;;;;;;1.48;1.30;;;24.80;1.40;;;27.18;34.66;94831.42;645291;216;31714;-74
2022/05/30 12:55:17;;;;;;;1.70;1.60;;;22.70;1.40;;;27.00;35.60;94833.05;646261;216;31532;-75
2022/05/30 12:57:59;;;;;;;2.00;1.20;;;21.80;1.40;;;30.30;33.92;94827.34;646651;216;31892;-76